sensor_id;sensor_type;location;lat;lon;timestamp;P1;durP1;ratioP1;P2;durP2;ratioP2
14692;SDS011;7435;50.842;4.258;2022-10-22T00:28:59;307.20;;;58.70;;
14692;SDS011;7435;50.842;4.258;2022-10-22T00:41:14;308.00;;;61.50;;
14692;SDS011;7435;50.842;4.258;2022-10-22T01:00:51;301.30;;;58.60;;
14692;SDS011;7435;50.842;4.258;2022-10-22T01:08:16;302.40;;;59.60;;
14692;SDS011;7435;50.842;4.258;2022-10-22T01:23:06;312.70;;;61.40;;
14692;SDS011;7435;50.842;4.258;2022-10-22T01:47:46;302.50;;;61.60;;
14692;SDS011;7435;50.842;4.258;2022-10-22T01:50:23;313.70;;;60.40;;
14692;SDS011;7435;50.842;4.258;2022-10-22T01:53:00;312.10;;;65.20;;
14692;SDS011;7435;50.842;4.258;2022-10-22T02:22:29;302.20;;;60.10;;
14692;SDS011;7435;50.842;4.258;2022-10-22T02:24:57;311.60;;;64.15;;
14692;SDS011;7435;50.842;4.258;2022-10-22T02:42:07;301.85;;;59.60;;
14692;SDS011;7435;50.842;4.258;2022-10-22T02:44:36;311.50;;;66.20;;
14692;SDS011;7435;50.842;4.258;2022-10-22T02:47:03;301.30;;;59.50;;
14692;SDS011;7435;50.842;4.258;2022-10-22T02:49:30;309.20;;;60.70;;
14692;SDS011;7435;50.842;4.258;2022-10-22T02:51:57;301.80;;;58.80;;
14692;SDS011;7435;50.842;4.258;2022-10-22T02:54:25;316.10;;;63.10;;
14692;SDS011;7435;50.842;4.258;2022-10-22T02:56:52;300.60;;;59.50;;
14692;SDS011;7435;50.842;4.258;2022-10-22T02:59:20;305.45;;;60.40;;
14692;SDS011;7435;50.842;4.258;2022-10-22T03:01:48;312.90;;;62.00;;
14692;SDS011;7435;50.842;4.258;2022-10-22T03:23:54;303.70;;;60.10;;
14692;SDS011;7435;50.842;4.258;2022-10-22T03:43:32;305.10;;;60.90;;
14692;SDS011;7435;50.842;4.258;2022-10-22T04:12:57;301.80;;;59.10;;
14692;SDS011;7435;50.842;4.258;2022-10-22T04:15:24;305.60;;;60.40;;
14692;SDS011;7435;50.842;4.258;2022-10-22T04:17:53;309.10;;;60.00;;
14692;SDS011;7435;50.842;4.258;2022-10-22T04:20:20;313.00;;;64.05;;
14692;SDS011;7435;50.842;4.258;2022-10-22T04:22:47;306.50;;;62.20;;
14692;SDS011;7435;50.842;4.258;2022-10-22T04:25:14;315.50;;;64.40;;
14692;SDS011;7435;50.842;4.258;2022-10-22T04:27:41;305.40;;;59.40;;
14692;SDS011;7435;50.842;4.258;2022-10-22T04:30:11;305.30;;;61.80;;
14692;SDS011;7435;50.842;4.258;2022-10-22T04:35:05;306.20;;;60.80;;
14692;SDS011;7435;50.842;4.258;2022-10-22T04:37:32;306.50;;;59.35;;
14692;SDS011;7435;50.842;4.258;2022-10-22T04:40:00;303.60;;;58.60;;
14692;SDS011;7435;50.842;4.258;2022-10-22T04:42:27;303.27;;;60.00;;
14692;SDS011;7435;50.842;4.258;2022-10-22T04:49:49;301.00;;;58.90;;
14692;SDS011;7435;50.842;4.258;2022-10-22T04:52:16;307.05;;;61.00;;
14692;SDS011;7435;50.842;4.258;2022-10-22T05:04:32;305.70;;;59.90;;
14692;SDS011;7435;50.842;4.258;2022-10-22T05:14:22;303.10;;;59.45;;
14692;SDS011;7435;50.842;4.258;2022-10-22T05:24:10;304.30;;;60.20;;
14692;SDS011;7435;50.842;4.258;2022-10-22T05:43:47;304.10;;;60.50;;
14692;SDS011;7435;50.842;4.258;2022-10-22T05:46:15;300.90;;;58.50;;
14692;SDS011;7435;50.842;4.258;2022-10-22T05:48:42;299.20;;;59.20;;
14692;SDS011;7435;50.842;4.258;2022-10-22T05:51:10;301.20;;;60.10;;
14692;SDS011;7435;50.842;4.258;2022-10-22T05:53:38;298.85;;;60.10;;
14692;SDS011;7435;50.842;4.258;2022-10-22T05:56:07;312.30;;;61.70;;
14692;SDS011;7435;50.842;4.258;2022-10-22T06:01:03;302.00;;;59.80;;
14692;SDS011;7435;50.842;4.258;2022-10-22T06:05:58;301.20;;;59.80;;
14692;SDS011;7435;50.842;4.258;2022-10-22T06:10:53;302.40;;;59.70;;
14692;SDS011;7435;50.842;4.258;2022-10-22T06:13:20;296.55;;;57.75;;
14692;SDS011;7435;50.842;4.258;2022-10-22T06:15:47;295.50;;;59.00;;
14692;SDS011;7435;50.842;4.258;2022-10-22T06:18:18;307.55;;;60.35;;
14692;SDS011;7435;50.842;4.258;2022-10-22T06:20:45;298.75;;;59.65;;
14692;SDS011;7435;50.842;4.258;2022-10-22T06:23:12;300.60;;;59.20;;
14692;SDS011;7435;50.842;4.258;2022-10-22T06:33:01;300.77;;;58.37;;
14692;SDS011;7435;50.842;4.258;2022-10-22T06:35:29;301.60;;;57.55;;
14692;SDS011;7435;50.842;4.258;2022-10-22T06:37:57;303.95;;;61.75;;
14692;SDS011;7435;50.842;4.258;2022-10-22T06:40:24;302.85;;;59.10;;
14692;SDS011;7435;50.842;4.258;2022-10-22T06:42:51;312.30;;;61.70;;
14692;SDS011;7435;50.842;4.258;2022-10-22T06:50:13;300.30;;;57.50;;
14692;SDS011;7435;50.842;4.258;2022-10-22T06:52:41;305.45;;;61.40;;
14692;SDS011;7435;50.842;4.258;2022-10-22T06:55:08;301.50;;;58.20;;
14692;SDS011;7435;50.842;4.258;2022-10-22T07:00:03;304.90;;;60.25;;
14692;SDS011;7435;50.842;4.258;2022-10-22T07:02:30;305.38;;;59.10;;
14692;SDS011;7435;50.842;4.258;2022-10-22T07:04:58;301.40;;;58.30;;
14692;SDS011;7435;50.842;4.258;2022-10-22T07:07:25;298.15;;;58.40;;
14692;SDS011;7435;50.842;4.258;2022-10-22T07:09:53;303.45;;;62.20;;
14692;SDS011;7435;50.842;4.258;2022-10-22T07:12:21;301.10;;;57.90;;
14692;SDS011;7435;50.842;4.258;2022-10-22T07:14:48;310.40;;;60.60;;
14692;SDS011;7435;50.842;4.258;2022-10-22T07:17:15;300.20;;;61.95;;
14692;SDS011;7435;50.842;4.258;2022-10-22T07:19:42;297.50;;;60.90;;
14692;SDS011;7435;50.842;4.258;2022-10-22T07:22:10;303.40;;;61.80;;
14692;SDS011;7435;50.842;4.258;2022-10-22T07:24:37;301.42;;;63.53;;
14692;SDS011;7435;50.842;4.258;2022-10-22T07:27:05;304.03;;;60.50;;
14692;SDS011;7435;50.842;4.258;2022-10-22T07:29:32;295.38;;;60.58;;
14692;SDS011;7435;50.842;4.258;2022-10-22T07:32:00;301.20;;;61.60;;
14692;SDS011;7435;50.842;4.258;2022-10-22T07:34:27;309.48;;;68.47;;
14692;SDS011;7435;50.842;4.258;2022-10-22T07:36:54;308.25;;;65.65;;
14692;SDS011;7435;50.842;4.258;2022-10-22T07:39:21;300.80;;;61.60;;
14692;SDS011;7435;50.842;4.258;2022-10-22T07:41:49;312.38;;;63.70;;
14692;SDS011;7435;50.842;4.258;2022-10-22T07:44:18;303.25;;;61.92;;
14692;SDS011;7435;50.842;4.258;2022-10-22T07:46:45;305.73;;;61.15;;
14692;SDS011;7435;50.842;4.258;2022-10-22T07:49:12;298.92;;;59.42;;
14692;SDS011;7435;50.842;4.258;2022-10-22T07:51:39;307.00;;;60.55;;
14692;SDS011;7435;50.842;4.258;2022-10-22T07:54:07;301.95;;;62.08;;
14692;SDS011;7435;50.842;4.258;2022-10-22T07:56:34;300.80;;;61.70;;
14692;SDS011;7435;50.842;4.258;2022-10-22T07:59:01;298.25;;;60.38;;
14692;SDS011;7435;50.842;4.258;2022-10-22T08:01:30;305.20;;;62.30;;
14692;SDS011;7435;50.842;4.258;2022-10-22T08:03:57;304.42;;;62.72;;
14692;SDS011;7435;50.842;4.258;2022-10-22T08:06:25;302.45;;;61.50;;
14692;SDS011;7435;50.842;4.258;2022-10-22T08:08:53;308.05;;;65.50;;
14692;SDS011;7435;50.842;4.258;2022-10-22T08:11:20;300.38;;;61.25;;
14692;SDS011;7435;50.842;4.258;2022-10-22T08:13:47;296.70;;;59.50;;
14692;SDS011;7435;50.842;4.258;2022-10-22T08:16:14;303.10;;;64.22;;
14692;SDS011;7435;50.842;4.258;2022-10-22T08:18:43;300.10;;;60.40;;
14692;SDS011;7435;50.842;4.258;2022-10-22T08:21:11;304.77;;;60.65;;
14692;SDS011;7435;50.842;4.258;2022-10-22T08:23:39;303.08;;;61.30;;
14692;SDS011;7435;50.842;4.258;2022-10-22T08:26:06;295.77;;;60.08;;
14692;SDS011;7435;50.842;4.258;2022-10-22T08:28:33;300.67;;;58.95;;
14692;SDS011;7435;50.842;4.258;2022-10-22T08:31:01;301.85;;;59.42;;
14692;SDS011;7435;50.842;4.258;2022-10-22T08:33:28;301.25;;;59.22;;
14692;SDS011;7435;50.842;4.258;2022-10-22T08:35:57;296.75;;;59.10;;
14692;SDS011;7435;50.842;4.258;2022-10-22T08:38:24;299.57;;;59.03;;
14692;SDS011;7435;50.842;4.258;2022-10-22T08:40:52;307.33;;;63.13;;
14692;SDS011;7435;50.842;4.258;2022-10-22T08:48:53;303.63;;;63.28;;
14692;SDS011;7435;50.842;4.258;2022-10-22T08:51:23;307.85;;;65.30;;
14692;SDS011;7435;50.842;4.258;2022-10-22T08:54:03;315.92;;;70.18;;
14692;SDS011;7435;50.842;4.258;2022-10-22T08:56:32;305.27;;;65.72;;
14692;SDS011;7435;50.842;4.258;2022-10-22T08:59:02;299.50;;;62.63;;
14692;SDS011;7435;50.842;4.258;2022-10-22T09:01:32;303.35;;;62.00;;
14692;SDS011;7435;50.842;4.258;2022-10-22T09:04:00;296.90;;;61.28;;
14692;SDS011;7435;50.842;4.258;2022-10-22T09:06:32;301.73;;;64.55;;
14692;SDS011;7435;50.842;4.258;2022-10-22T09:09:01;302.90;;;60.17;;
14692;SDS011;7435;50.842;4.258;2022-10-22T09:11:32;302.30;;;57.93;;
14692;SDS011;7435;50.842;4.258;2022-10-22T09:14:00;301.00;;;58.20;;
14692;SDS011;7435;50.842;4.258;2022-10-22T09:16:31;293.17;;;58.70;;
14692;SDS011;7435;50.842;4.258;2022-10-22T09:19:02;297.05;;;60.03;;
14692;SDS011;7435;50.842;4.258;2022-10-22T09:21:36;297.45;;;57.05;;
14692;SDS011;7435;50.842;4.258;2022-10-22T09:24:07;309.67;;;58.90;;
14692;SDS011;7435;50.842;4.258;2022-10-22T09:26:37;295.65;;;56.28;;
14692;SDS011;7435;50.842;4.258;2022-10-22T09:29:05;301.50;;;62.13;;
14692;SDS011;7435;50.842;4.258;2022-10-22T09:31:32;297.17;;;60.13;;
14692;SDS011;7435;50.842;4.258;2022-10-22T09:34:00;301.93;;;59.63;;
14692;SDS011;7435;50.842;4.258;2022-10-22T09:36:32;299.17;;;58.03;;
14692;SDS011;7435;50.842;4.258;2022-10-22T09:39:00;297.92;;;58.72;;
14692;SDS011;7435;50.842;4.258;2022-10-22T09:41:28;293.83;;;59.90;;
14692;SDS011;7435;50.842;4.258;2022-10-22T09:43:56;296.10;;;58.80;;
14692;SDS011;7435;50.842;4.258;2022-10-22T09:46:24;296.73;;;59.97;;
14692;SDS011;7435;50.842;4.258;2022-10-22T09:48:57;301.45;;;60.03;;
14692;SDS011;7435;50.842;4.258;2022-10-22T09:51:35;296.75;;;58.75;;
14692;SDS011;7435;50.842;4.258;2022-10-22T09:54:12;302.83;;;58.60;;
14692;SDS011;7435;50.842;4.258;2022-10-22T09:56:40;296.45;;;59.17;;
14692;SDS011;7435;50.842;4.258;2022-10-22T09:59:11;302.67;;;62.80;;
14692;SDS011;7435;50.842;4.258;2022-10-22T10:01:39;302.08;;;58.83;;
14692;SDS011;7435;50.842;4.258;2022-10-22T10:04:07;298.73;;;58.93;;
14692;SDS011;7435;50.842;4.258;2022-10-22T10:06:35;292.33;;;55.83;;
14692;SDS011;7435;50.842;4.258;2022-10-22T10:09:07;298.20;;;57.83;;
14692;SDS011;7435;50.842;4.258;2022-10-22T10:11:40;298.10;;;57.72;;
14692;SDS011;7435;50.842;4.258;2022-10-22T10:14:10;305.30;;;56.80;;
14692;SDS011;7435;50.842;4.258;2022-10-22T10:16:42;298.63;;;59.40;;
14692;SDS011;7435;50.842;4.258;2022-10-22T10:19:16;300.05;;;59.83;;
14692;SDS011;7435;50.842;4.258;2022-10-22T10:21:48;299.75;;;59.20;;
14692;SDS011;7435;50.842;4.258;2022-10-22T10:24:20;304.50;;;62.03;;
14692;SDS011;7435;50.842;4.258;2022-10-22T10:26:50;305.48;;;62.90;;
14692;SDS011;7435;50.842;4.258;2022-10-22T10:29:23;300.92;;;61.40;;
14692;SDS011;7435;50.842;4.258;2022-10-22T10:31:59;295.15;;;59.55;;
14692;SDS011;7435;50.842;4.258;2022-10-22T10:34:29;296.98;;;61.40;;
14692;SDS011;7435;50.842;4.258;2022-10-22T10:37:00;302.58;;;61.72;;
14692;SDS011;7435;50.842;4.258;2022-10-22T10:39:33;292.87;;;57.63;;
14692;SDS011;7435;50.842;4.258;2022-10-22T10:42:04;298.40;;;57.58;;
14692;SDS011;7435;50.842;4.258;2022-10-22T10:44:40;300.70;;;58.60;;
14692;SDS011;7435;50.842;4.258;2022-10-22T10:47:13;297.13;;;56.90;;
14692;SDS011;7435;50.842;4.258;2022-10-22T10:49:42;298.63;;;56.35;;
14692;SDS011;7435;50.842;4.258;2022-10-22T10:52:12;316.33;;;66.70;;
14692;SDS011;7435;50.842;4.258;2022-10-22T10:54:45;294.80;;;58.72;;
14692;SDS011;7435;50.842;4.258;2022-10-22T10:57:18;303.67;;;57.28;;
14692;SDS011;7435;50.842;4.258;2022-10-22T10:59:52;290.10;;;53.83;;
14692;SDS011;7435;50.842;4.258;2022-10-22T11:02:29;292.10;;;54.72;;
14692;SDS011;7435;50.842;4.258;2022-10-22T11:05:06;298.77;;;58.93;;
14692;SDS011;7435;50.842;4.258;2022-10-22T11:07:39;290.35;;;54.15;;
14692;SDS011;7435;50.842;4.258;2022-10-22T11:10:12;290.77;;;55.13;;
14692;SDS011;7435;50.842;4.258;2022-10-22T11:12:46;290.83;;;53.88;;
14692;SDS011;7435;50.842;4.258;2022-10-22T11:15:19;291.25;;;55.42;;
14692;SDS011;7435;50.842;4.258;2022-10-22T11:17:48;292.50;;;55.97;;
14692;SDS011;7435;50.842;4.258;2022-10-22T11:20:15;292.75;;;55.78;;
14692;SDS011;7435;50.842;4.258;2022-10-22T11:22:44;292.97;;;55.87;;
14692;SDS011;7435;50.842;4.258;2022-10-22T11:25:15;303.33;;;59.63;;
14692;SDS011;7435;50.842;4.258;2022-10-22T11:27:44;301.73;;;61.40;;
14692;SDS011;7435;50.842;4.258;2022-10-22T11:30:15;296.45;;;61.63;;
14692;SDS011;7435;50.842;4.258;2022-10-22T11:32:43;295.73;;;62.33;;
14692;SDS011;7435;50.842;4.258;2022-10-22T11:35:13;302.45;;;59.97;;
14692;SDS011;7435;50.842;4.258;2022-10-22T11:37:42;299.52;;;62.13;;
14692;SDS011;7435;50.842;4.258;2022-10-22T11:40:13;307.03;;;61.03;;
14692;SDS011;7435;50.842;4.258;2022-10-22T11:42:45;303.98;;;68.65;;
14692;SDS011;7435;50.842;4.258;2022-10-22T11:45:28;304.70;;;65.50;;
14692;SDS011;7435;50.842;4.258;2022-10-22T11:48:06;306.50;;;61.40;;
14692;SDS011;7435;50.842;4.258;2022-10-22T11:53:01;305.00;;;61.70;;
14692;SDS011;7435;50.842;4.258;2022-10-22T11:57:57;296.00;;;59.40;;
14692;SDS011;7435;50.842;4.258;2022-10-22T12:25:05;279.75;;;52.45;;
14692;SDS011;7435;50.842;4.258;2022-10-22T12:32:32;280.70;;;52.30;;
14692;SDS011;7435;50.842;4.258;2022-10-22T12:37:27;285.20;;;53.90;;
14692;SDS011;7435;50.842;4.258;2022-10-22T13:02:03;282.40;;;52.30;;
14692;SDS011;7435;50.842;4.258;2022-10-22T13:04:36;280.40;;;49.40;;
14692;SDS011;7435;50.842;4.258;2022-10-22T13:41:26;283.17;;;51.33;;
14692;SDS011;7435;50.842;4.258;2022-10-22T13:43:55;277.10;;;50.60;;
14692;SDS011;7435;50.842;4.258;2022-10-22T13:46:23;283.90;;;52.10;;
14692;SDS011;7435;50.842;4.258;2022-10-22T13:48:51;282.90;;;50.00;;
14692;SDS011;7435;50.842;4.258;2022-10-22T13:51:22;284.15;;;53.08;;
14692;SDS011;7435;50.842;4.258;2022-10-22T13:53:53;282.80;;;52.50;;
14692;SDS011;7435;50.842;4.258;2022-10-22T13:56:23;286.80;;;54.30;;
14692;SDS011;7435;50.842;4.258;2022-10-22T13:58:52;287.27;;;53.07;;
14692;SDS011;7435;50.842;4.258;2022-10-22T14:01:20;280.95;;;51.40;;
14692;SDS011;7435;50.842;4.258;2022-10-22T14:03:47;285.20;;;51.40;;
14692;SDS011;7435;50.842;4.258;2022-10-22T14:06:16;283.05;;;52.00;;
14692;SDS011;7435;50.842;4.258;2022-10-22T14:08:44;284.50;;;51.35;;
14692;SDS011;7435;50.842;4.258;2022-10-22T14:11:11;281.95;;;52.60;;
14692;SDS011;7435;50.842;4.258;2022-10-22T14:13:39;287.17;;;53.28;;
14692;SDS011;7435;50.842;4.258;2022-10-22T14:16:10;287.37;;;52.23;;
14692;SDS011;7435;50.842;4.258;2022-10-22T14:18:40;287.45;;;53.55;;
14692;SDS011;7435;50.842;4.258;2022-10-22T14:21:09;290.88;;;51.80;;
14692;SDS011;7435;50.842;4.258;2022-10-22T14:23:37;280.60;;;51.07;;
14692;SDS011;7435;50.842;4.258;2022-10-22T14:26:05;279.35;;;51.25;;
14692;SDS011;7435;50.842;4.258;2022-10-22T14:28:33;294.77;;;55.75;;
14692;SDS011;7435;50.842;4.258;2022-10-22T14:31:01;286.57;;;52.47;;
14692;SDS011;7435;50.842;4.258;2022-10-22T14:33:30;290.15;;;53.15;;
14692;SDS011;7435;50.842;4.258;2022-10-22T14:35:57;283.13;;;53.22;;
14692;SDS011;7435;50.842;4.258;2022-10-22T14:38:24;295.40;;;55.80;;
14692;SDS011;7435;50.842;4.258;2022-10-22T14:40:52;281.38;;;51.45;;
14692;SDS011;7435;50.842;4.258;2022-10-22T14:43:20;286.00;;;53.20;;
14692;SDS011;7435;50.842;4.258;2022-10-22T14:45:48;281.90;;;52.65;;
14692;SDS011;7435;50.842;4.258;2022-10-22T14:48:15;287.00;;;53.67;;
14692;SDS011;7435;50.842;4.258;2022-10-22T14:50:44;278.20;;;50.80;;
14692;SDS011;7435;50.842;4.258;2022-10-22T14:53:12;282.05;;;52.00;;
14692;SDS011;7435;50.842;4.258;2022-10-22T14:55:40;283.70;;;51.50;;
14692;SDS011;7435;50.842;4.258;2022-10-22T14:58:08;283.50;;;53.85;;
14692;SDS011;7435;50.842;4.258;2022-10-22T15:03:03;280.27;;;52.25;;
14692;SDS011;7435;50.842;4.258;2022-10-22T15:05:30;283.15;;;52.30;;
14692;SDS011;7435;50.842;4.258;2022-10-22T15:07:59;282.75;;;53.65;;
14692;SDS011;7435;50.842;4.258;2022-10-22T15:10:26;294.35;;;55.65;;
14692;SDS011;7435;50.842;4.258;2022-10-22T15:12:53;284.17;;;53.70;;
14692;SDS011;7435;50.842;4.258;2022-10-22T15:15:20;283.05;;;52.85;;
14692;SDS011;7435;50.842;4.258;2022-10-22T15:17:47;305.80;;;61.25;;
14692;SDS011;7435;50.842;4.258;2022-10-22T15:20:15;296.30;;;57.88;;
14692;SDS011;7435;50.842;4.258;2022-10-22T15:22:42;282.50;;;51.33;;
14692;SDS011;7435;50.842;4.258;2022-10-22T15:25:10;285.17;;;51.90;;
14692;SDS011;7435;50.842;4.258;2022-10-22T15:27:38;297.33;;;56.72;;
14692;SDS011;7435;50.842;4.258;2022-10-22T15:30:06;299.25;;;57.40;;
14692;SDS011;7435;50.842;4.258;2022-10-22T15:32:33;284.33;;;52.13;;
14692;SDS011;7435;50.842;4.258;2022-10-22T15:35:01;293.08;;;53.55;;
14692;SDS011;7435;50.842;4.258;2022-10-22T15:37:29;287.83;;;54.25;;
14692;SDS011;7435;50.842;4.258;2022-10-22T15:39:56;287.33;;;53.63;;
14692;SDS011;7435;50.842;4.258;2022-10-22T15:42:25;289.60;;;54.13;;
14692;SDS011;7435;50.842;4.258;2022-10-22T15:44:56;289.17;;;53.00;;
14692;SDS011;7435;50.842;4.258;2022-10-22T15:47:23;284.13;;;52.73;;
14692;SDS011;7435;50.842;4.258;2022-10-22T15:49:53;285.20;;;52.05;;
14692;SDS011;7435;50.842;4.258;2022-10-22T15:52:21;298.10;;;58.20;;
14692;SDS011;7435;50.842;4.258;2022-10-22T15:55:11;285.13;;;52.03;;
14692;SDS011;7435;50.842;4.258;2022-10-22T16:03:38;11.25;;;5.20;;
14692;SDS011;7435;50.842;4.258;2022-10-22T16:06:22;12.03;;;6.30;;
14692;SDS011;7435;50.842;4.258;2022-10-22T16:08:50;17.67;;;7.18;;
14692;SDS011;7435;50.842;4.258;2022-10-22T16:16:34;10.93;;;5.23;;
14692;SDS011;7435;50.842;4.258;2022-10-22T16:19:05;9.63;;;5.15;;
14692;SDS011;7435;50.842;4.258;2022-10-22T16:21:32;10.40;;;5.60;;
14692;SDS011;7435;50.842;4.258;2022-10-22T16:26:35;14.35;;;7.80;;
14692;SDS011;7435;50.842;4.258;2022-10-22T16:29:03;10.43;;;5.60;;
14692;SDS011;7435;50.842;4.258;2022-10-22T16:31:31;10.65;;;5.80;;
14692;SDS011;7435;50.842;4.258;2022-10-22T16:33:58;8.65;;;4.00;;
14692;SDS011;7435;50.842;4.258;2022-10-22T16:36:27;9.35;;;5.38;;
14692;SDS011;7435;50.842;4.258;2022-10-22T16:38:54;7.37;;;3.43;;
14692;SDS011;7435;50.842;4.258;2022-10-22T16:41:23;12.63;;;8.47;;
14692;SDS011;7435;50.842;4.258;2022-10-22T16:43:57;9.77;;;5.13;;
14692;SDS011;7435;50.842;4.258;2022-10-22T16:46:26;16.10;;;9.80;;
14692;SDS011;7435;50.842;4.258;2022-10-22T16:48:54;9.47;;;4.63;;
14692;SDS011;7435;50.842;4.258;2022-10-22T17:01:56;13.32;;;6.80;;
14692;SDS011;7435;50.842;4.258;2022-10-22T17:04:27;12.37;;;6.97;;
14692;SDS011;7435;50.842;4.258;2022-10-22T17:30:33;11.20;;;5.90;;
14692;SDS011;7435;50.842;4.258;2022-10-22T17:33:03;10.77;;;5.45;;
14692;SDS011;7435;50.842;4.258;2022-10-22T17:53:44;10.47;;;5.87;;
14692;SDS011;7435;50.842;4.258;2022-10-22T17:56:16;8.70;;;4.25;;
14692;SDS011;7435;50.842;4.258;2022-10-22T17:58:45;15.70;;;5.60;;
14692;SDS011;7435;50.842;4.258;2022-10-22T18:01:28;13.48;;;7.68;;
14692;SDS011;7435;50.842;4.258;2022-10-22T18:03:57;14.87;;;8.83;;
14692;SDS011;7435;50.842;4.258;2022-10-22T18:06:25;14.33;;;7.90;;
14692;SDS011;7435;50.842;4.258;2022-10-22T18:08:54;12.47;;;6.40;;
14692;SDS011;7435;50.842;4.258;2022-10-22T18:11:22;9.77;;;5.57;;
14692;SDS011;7435;50.842;4.258;2022-10-22T18:13:49;13.30;;;8.97;;
14692;SDS011;7435;50.842;4.258;2022-10-22T18:16:17;11.77;;;6.77;;
14692;SDS011;7435;50.842;4.258;2022-10-22T18:18:44;9.80;;;5.90;;
14692;SDS011;7435;50.842;4.258;2022-10-22T18:21:13;9.98;;;5.93;;
14692;SDS011;7435;50.842;4.258;2022-10-22T18:23:51;10.00;;;5.83;;
14692;SDS011;7435;50.842;4.258;2022-10-22T18:26:20;13.93;;;7.97;;
14692;SDS011;7435;50.842;4.258;2022-10-22T18:28:49;13.83;;;6.60;;
14692;SDS011;7435;50.842;4.258;2022-10-22T18:34:13;9.10;;;5.20;;
14692;SDS011;7435;50.842;4.258;2022-10-22T18:36:43;12.20;;;5.90;;
14692;SDS011;7435;50.842;4.258;2022-10-22T18:39:11;11.25;;;5.85;;
14692;SDS011;7435;50.842;4.258;2022-10-22T18:44:27;12.70;;;7.57;;
14692;SDS011;7435;50.842;4.258;2022-10-22T18:46:54;11.83;;;6.00;;
14692;SDS011;7435;50.842;4.258;2022-10-22T18:49:22;9.97;;;4.90;;
14692;SDS011;7435;50.842;4.258;2022-10-22T18:51:49;9.27;;;5.23;;
14692;SDS011;7435;50.842;4.258;2022-10-22T18:54:17;12.10;;;7.30;;
14692;SDS011;7435;50.842;4.258;2022-10-22T18:56:45;9.40;;;5.50;;
14692;SDS011;7435;50.842;4.258;2022-10-22T18:59:12;9.10;;;5.20;;
14692;SDS011;7435;50.842;4.258;2022-10-22T19:01:42;11.23;;;6.67;;
14692;SDS011;7435;50.842;4.258;2022-10-22T19:04:10;11.97;;;7.83;;
14692;SDS011;7435;50.842;4.258;2022-10-22T19:06:45;13.23;;;7.83;;
14692;SDS011;7435;50.842;4.258;2022-10-22T19:09:13;10.47;;;5.90;;
14692;SDS011;7435;50.842;4.258;2022-10-22T19:11:41;10.30;;;5.93;;
14692;SDS011;7435;50.842;4.258;2022-10-22T19:14:08;10.77;;;6.23;;
14692;SDS011;7435;50.842;4.258;2022-10-22T19:16:35;11.23;;;6.23;;
14692;SDS011;7435;50.842;4.258;2022-10-22T19:19:04;307.60;;;60.65;;
14692;SDS011;7435;50.842;4.258;2022-10-22T19:21:32;317.77;;;64.00;;
14692;SDS011;7435;50.842;4.258;2022-10-22T19:23:59;306.90;;;62.60;;
14692;SDS011;7435;50.842;4.258;2022-10-22T19:26:27;306.57;;;63.47;;
14692;SDS011;7435;50.842;4.258;2022-10-22T19:28:55;309.52;;;62.80;;
14692;SDS011;7435;50.842;4.258;2022-10-22T19:31:23;309.83;;;66.70;;
14692;SDS011;7435;50.842;4.258;2022-10-22T19:33:50;305.58;;;64.75;;
14692;SDS011;7435;50.842;4.258;2022-10-22T19:36:21;311.15;;;63.78;;
14692;SDS011;7435;50.842;4.258;2022-10-22T19:38:49;314.97;;;63.23;;
14692;SDS011;7435;50.842;4.258;2022-10-22T19:41:17;308.70;;;63.93;;
14692;SDS011;7435;50.842;4.258;2022-10-22T19:43:44;312.73;;;66.47;;
14692;SDS011;7435;50.842;4.258;2022-10-22T19:46:13;308.37;;;65.07;;
14692;SDS011;7435;50.842;4.258;2022-10-22T19:48:40;315.55;;;64.70;;
14692;SDS011;7435;50.842;4.258;2022-10-22T19:51:08;312.17;;;62.60;;
14692;SDS011;7435;50.842;4.258;2022-10-22T19:53:37;310.73;;;63.78;;
14692;SDS011;7435;50.842;4.258;2022-10-22T19:56:05;302.03;;;62.60;;
14692;SDS011;7435;50.842;4.258;2022-10-22T19:58:33;306.27;;;61.85;;
14692;SDS011;7435;50.842;4.258;2022-10-22T20:01:02;311.30;;;61.65;;
14692;SDS011;7435;50.842;4.258;2022-10-22T20:03:29;309.55;;;63.22;;
14692;SDS011;7435;50.842;4.258;2022-10-22T20:05:57;308.77;;;61.60;;
14692;SDS011;7435;50.842;4.258;2022-10-22T20:08:24;308.58;;;61.97;;
14692;SDS011;7435;50.842;4.258;2022-10-22T20:10:52;304.85;;;61.30;;
14692;SDS011;7435;50.842;4.258;2022-10-22T20:13:20;310.25;;;60.10;;
14692;SDS011;7435;50.842;4.258;2022-10-22T20:15:47;312.30;;;63.90;;
14692;SDS011;7435;50.842;4.258;2022-10-22T20:18:16;305.85;;;62.00;;
14692;SDS011;7435;50.842;4.258;2022-10-22T20:20:43;311.17;;;62.77;;
14692;SDS011;7435;50.842;4.258;2022-10-22T20:23:11;319.10;;;63.20;;
14692;SDS011;7435;50.842;4.258;2022-10-22T20:25:39;308.00;;;62.75;;
14692;SDS011;7435;50.842;4.258;2022-10-22T20:28:08;303.67;;;64.33;;
14692;SDS011;7435;50.842;4.258;2022-10-22T20:33:02;313.10;;;65.90;;
14692;SDS011;7435;50.842;4.258;2022-10-22T20:35:29;312.43;;;62.83;;
14692;SDS011;7435;50.842;4.258;2022-10-22T20:40:24;306.45;;;63.10;;
14692;SDS011;7435;50.842;4.258;2022-10-22T20:47:47;314.20;;;62.10;;
14692;SDS011;7435;50.842;4.258;2022-10-22T20:50:14;308.60;;;62.85;;
14692;SDS011;7435;50.842;4.258;2022-10-22T21:05:01;310.90;;;61.10;;
14692;SDS011;7435;50.842;4.258;2022-10-22T21:07:28;318.00;;;64.40;;
14692;SDS011;7435;50.842;4.258;2022-10-22T21:29:33;312.20;;;64.60;;
14692;SDS011;7435;50.842;4.258;2022-10-22T21:41:49;318.95;;;66.65;;
14692;SDS011;7435;50.842;4.258;2022-10-22T21:44:16;316.70;;;64.00;;
14692;SDS011;7435;50.842;4.258;2022-10-22T21:46:45;308.13;;;63.80;;
14692;SDS011;7435;50.842;4.258;2022-10-22T21:49:13;321.00;;;65.50;;
14692;SDS011;7435;50.842;4.258;2022-10-22T21:54:07;311.70;;;63.50;;
14692;SDS011;7435;50.842;4.258;2022-10-22T22:01:30;302.70;;;62.30;;
14692;SDS011;7435;50.842;4.258;2022-10-22T22:11:22;312.60;;;65.50;;
